Flight Track Log - Related Links

Times and Time Zones

All times are in EDT time to prevent confusion due to time zone crossing. See the SWA3681 flight status page for this flight to view local times or setup timezone preferences in your user account.

Time Position Orientation Groundspeed Altitude Reporting Facility
EDT Latitude Longitude Course Direction KTS MPH feet Rate Location/Type
Tue 10:53:09 AM 31.7803 -106.4458 246° West 217 250 6,200  Level Albuquerque Center
Tue 10:54:10 AM 31.7672 -106.5164 258° West 257 296 8,800 2,464 Climbing Albuquerque Center
Tue 10:55:01 AM 31.7989 -106.5706 305° West 241 277 10,800 1,434 Climbing Albuquerque Center
Tue 10:56:03 AM 31.8500 -106.6528 306° West 312 359 11,500 1,403 Climbing Albuquerque Center
Tue 10:57:05 AM 31.9144 -106.7417 311° West 355 409 13,700 2,226 Climbing Albuquerque Center
Tue 10:58:07 AM 31.9819 -106.8364 310° West 366 421 16,100 2,226 Climbing Albuquerque Center
Tue 10:59:09 AM 32.0503 -106.9300 311° West 380 437 18,300 1,984 Climbing Albuquerque Center
Tue 11:00:11 AM 32.1261 -107.0192 315° West 383 441 20,200 1,951 Climbing Albuquerque Center
Tue 11:01:12 AM 32.2189 -107.1236 316° Northwest 391 450 22,300 1,854 Climbing Albuquerque Center
Tue 11:02:14 AM 32.2950 -107.2078 317° Northwest 403 464 24,000 1,645 Climbing Albuquerque Center
Tue 11:03:16 AM 32.3742 -107.3014 315° West 405 466 25,700 1,597 Climbing Albuquerque Center
Tue 11:04:18 AM 32.4722 -107.4125 316° Northwest 410 472 27,300 1,742 Climbing Albuquerque Center
Tue 11:05:20 AM 32.5564 -107.5042 317° Northwest 414 476 29,300 1,694 Climbing Albuquerque Center
Tue 11:06:22 AM 32.6419 -107.5894 320° Northwest 408 470 30,800 1,548 Climbing Albuquerque Center
Tue 11:07:24 AM 32.7275 -107.6733 320° Northwest 402 463 32,500 1,355 Climbing Albuquerque Center
Tue 11:08:26 AM 32.8106 -107.7561 320° Northwest 393 452 33,600 871 Climbing Albuquerque Center
Tue 11:09:28 AM 32.8939 -107.8392 320° Northwest 391 450 34,300 968 Climbing Albuquerque Center
Tue 11:10:30 AM 32.9947 -107.9397 320° Northwest 393 452 35,600 823 Climbing Albuquerque Center
Tue 11:11:32 AM 33.0783 -108.0231 320° Northwest 391 450 36,000 194 Climbing Albuquerque Center
Tue 11:12:34 AM 33.1625 -108.1078 320° Northwest 394 453 36,000  Level Albuquerque Center
Tue 11:13:36 AM 33.2372 -108.1858 319° Northwest 394 453 36,000  Level Albuquerque Center
Tue 11:14:38 AM 33.3197 -108.3017 310° West 388 447 36,000  Level Albuquerque Center
Tue 11:15:40 AM 33.3886 -108.3967 311° West 385 443 36,000  Level Albuquerque Center
Tue 11:16:42 AM 33.4569 -108.4914 311° West 383 441 36,000  Level Albuquerque Center
Tue 11:17:44 AM 33.5239 -108.5847 311° West 377 434 36,000  Level Albuquerque Center
Tue 11:18:46 AM 33.6047 -108.6969 311° West 375 432 36,000  Level Albuquerque Center
Tue 11:19:48 AM 33.6731 -108.7933 310° West 381 438 36,000  Level Albuquerque Center
Tue 11:20:50 AM 33.7400 -108.8883 310° West 379 436 36,000  Level Albuquerque Center
Tue 11:21:52 AM 33.8067 -108.9822 311° West 376 433 36,000  Level Albuquerque Center
Tue 11:22:54 AM 33.8872 -109.0958 311° West 376 433 36,000  Level Albuquerque Center
Tue 11:23:56 AM 33.9539 -109.1892 311° West 374 430 36,000  Level Albuquerque Center
Tue 11:24:58 AM 34.0203 -109.2850 310° West 375 432 36,000  Level Albuquerque Center
Tue 11:26:00 AM 34.0858 -109.3769 311° West 370 426 36,000  Level Albuquerque Center
Tue 11:27:02 AM 34.1592 -109.4800 311° West 368 423 36,000  Level Albuquerque Center
Tue 11:28:04 AM 34.2331 -109.5878 310° West 370 426 36,000  Level Albuquerque Center
Tue 11:29:07 AM 34.2986 -109.6803 311° West 375 432 36,000 48 Level Albuquerque Center
Tue 11:30:08 AM 34.3733 -109.7886 310° West 375 432 36,100  Climbing Albuquerque Center
Tue 11:31:10 AM 34.4369 -109.8792 310° West 371 427 36,000 -48 Descending Albuquerque Center
Tue 11:32:12 AM 34.5019 -109.9725 310° West 374 430 36,000  Level Albuquerque Center
Tue 11:33:14 AM 34.5772 -110.0811 310° West 375 432 36,000  Level Albuquerque Center
Tue 11:34:17 AM 34.6433 -110.1794 309° West 384 442 36,000  Level Albuquerque Center
Tue 11:35:19 AM 34.7192 -110.2892 310° West 383 441 36,000  Level Albuquerque Center
Tue 11:36:21 AM 34.7825 -110.3822 310° West 378 435 36,000  Level Albuquerque Center
Tue 11:37:23 AM 34.8558 -110.4897 310° West 372 428 36,000  Level Albuquerque Center
Tue 11:38:25 AM 34.9178 -110.5817 309° West 369 425 36,000  Level Albuquerque Center
Tue 11:39:27 AM 34.9903 -110.6900 309° West 368 423 36,000  Level Albuquerque Center
Tue 11:40:29 AM 35.0469 -110.7736 310° West 370 426 36,000 48 Level Albuquerque Center
Tue 11:41:31 AM 35.1153 -110.9028 303° West 374 430 36,100  Climbing Albuquerque Center
Tue 11:42:33 AM 35.1647 -111.0067 300° West 372 428 36,000 -242 Descending Albuquerque Center
Tue 11:43:35 AM 35.2200 -111.1217 300° West 380 437 35,600 -677 Descending Albuquerque Center
Tue 11:44:37 AM 35.2742 -111.2297 302° West 378 435 34,600 -968 Descending Albuquerque Center
Tue 11:45:39 AM 35.3267 -111.3361 301° West 364 419 33,600 -968 Descending Albuquerque Center
Tue 11:46:41 AM 35.3750 -111.4361 301° West 356 410 32,600 -1,016 Descending Albuquerque Center
Tue 11:47:43 AM 35.4386 -111.5664 301° West 364 419 31,500 -919 Descending Albuquerque Center
Tue 11:48:45 AM 35.4892 -111.6739 300° West 366 421 30,700 -726 Descending Albuquerque Center
Tue 11:49:47 AM 35.5414 -111.7839 300° West 370 426 30,000 -290 Descending Albuquerque Center
Tue 11:50:49 AM 35.5908 -111.8972 298° West 377 434 30,100 48 Climbing Albuquerque Center
Tue 11:51:51 AM 35.5964 -112.0236 273° West 373 429 30,100  Level Albuquerque Center
Tue 11:52:53 AM 35.5972 -112.1719 270° West 368 423 30,100  Level Albuquerque Center
Tue 11:53:55 AM 35.6014 -112.2964 272° West 367 422 30,100 -44 Level Albuquerque Center
Tue 11:55:08 AM 35.6056 -112.4467 272° West 366 421 30,000  Descending Los Angeles Center
Tue 11:56:10 AM 35.6081 -112.5717 271° West 369 425 30,100 48 Climbing Los Angeles Center
Tue 11:57:12 AM 35.6111 -112.7194 271° West 365 420 30,100  Level Los Angeles Center
Tue 11:58:14 AM 35.6139 -112.8461 272° West 369 425 30,100  Level Los Angeles Center
Tue 11:59:16 AM 35.6153 -112.9647 271° West 375 432 30,100  Level Los Angeles Center
Tue 12:00:18 PM 35.6167 -113.0925 271° West 375 432 30,100  Level Los Angeles Center
Tue 12:01:21 PM 35.6208 -113.2447 272° West 370 426 30,100 -240 Level Los Angeles Center
Tue 12:02:23 PM 35.6225 -113.3733 271° West 374 430 29,600 -1,403 Descending Los Angeles Center
Tue 12:03:25 PM 35.6239 -113.5019 271° West 378 435 27,200 -2,323 Descending Los Angeles Center
Tue 12:04:27 PM 35.6356 -113.6233 277° West 366 421 24,800 -1,902 Descending Los Angeles Center
Tue 12:05:28 PM 35.6519 -113.7364 280° West 346 398 23,300 -1,707 Descending Los Angeles Center
Tue 12:06:30 PM 35.6689 -113.8503 280° West 340 391 21,300 -2,032 Descending Los Angeles Center
Tue 12:07:32 PM 35.6839 -113.9606 280° West 333 383 19,100 -2,129 Descending Los Angeles Center
Tue 12:08:34 PM 35.7014 -114.0886 280° West 319 367 16,900 -2,231 Descending Los Angeles Center
Tue 12:09:33 PM 35.7211 -114.2028 282° West 337 388 14,600 -2,129 Descending Los Angeles Center
Tue 12:10:38 PM 35.7333 -114.3119 278° West 329 379 12,500 -1,370 Descending Los Angeles Center
Tue 12:11:40 PM 35.7414 -114.4114 276° West 295 339 11,700 -618 Descending Los Angeles Center
Tue 12:12:54 PM 35.7431 -114.5300 271° West 267 307 11,100 -339 Descending Los Angeles Center
Tue 12:13:44 PM 35.7417 -114.5911 268° West 261 300 11,000  Descending Los Angeles Center
Tue 12:14:46 PM 35.7417 -114.6856 270° West 233 268 11,100 50 Climbing Los Angeles Center
Tue 12:15:45 PM 35.7400 -114.7592 268° West 223 257 11,100 -339 Level Los Angeles Center
Tue 12:16:50 PM 35.7150 -114.8314 247° West 222 255 10,400 -938 Descending Los Angeles Center
Tue 12:17:53 PM 35.6911 -114.9036 248° West 225 259 9,100 -634 Descending Los Angeles Center
Tue 12:18:53 PM 35.6881 -114.9936 268° West 232 267 9,100  Level Los Angeles Center
Tue 12:20:06 PM 35.6836 -115.0825 267° West 227 261 9,100  Level Los Angeles Center
Tue 12:20:59 PM 35.6900 -115.1558 276° West 231 266 9,100  Level Los Angeles Center
Tue 12:22:01 PM 35.6997 -115.2394 278° West 237 273 9,100 -145 Level Los Angeles Center
Tue 12:23:03 PM 35.7483 -115.2717 332° Northwest 232 267 8,800 -488 Descending Los Angeles Center
Tue 12:24:04 PM 35.8153 -115.2803 354° North 229 264 8,100 -344 Descending Los Angeles Center
Tue 12:25:05 PM 35.8767 -115.2842 357° North 221 254 8,100 -730 Level Los Angeles Center
Tue 12:25:59 PM 35.9258 -115.2522 28° Northeast 215 247 6,700 -1,617 Descending Los Angeles Center
Tue 12:27:00 PM 35.9761 -115.2250 24° Northeast 198 228 5,000 -1,623 Descending Los Angeles Center
Tue 12:28:01 PM 36.0264 -115.1978 24° Northeast 194 223 3,400 -1,271 Descending Los Angeles Center
Tue 12:28:25 PM 36.0417 -115.1875 29° Northeast 133 153 3,200 -764 Descending Los Angeles Center
Tue 12:28:56 PM 36.0611 -115.1786 20° North 149 171 2,700 -387 Descending Los Angeles Center
Tue 12:29:27 PM 36.0739 -115.1689 32° Northeast 140 161 2,800 194 Climbing Los Angeles Center

Login

Don't have an account? Register now (free) for customized features, flight alerts, and more!